Time;durP1;ratioP1;P1;durP2;ratioP2;P2;SDS_P1;SDS_P2;PMS_P1;PMS_P2;Temp;Humidity;BMP_temperature;BMP_pressure;BME280_temperature;BME280_humidity;BME280_pressure;Samples;Min_cycle;Max_cycle;Signal;HPM_P1;HPM_P2
2021/08/23 00:01:14;;;;;;;15.93;12.23;;;;;;;;;;756717;184;918806;-68
2021/08/23 00:03:40;;;;;;;13.80;12.00;;;;;;;;;;760611;184;917060;-66
2021/08/23 00:06:06;;;;;;;14.75;11.93;;;;;;;;;;752919;184;919583;-66
2021/08/23 00:08:32;;;;;;;16.30;12.70;;;;;;;;;;754349;184;918949;-66
2021/08/23 00:10:58;;;;;;;17.17;12.50;;;;;;;;;;754684;184;919110;-66
2021/08/23 00:13:23;;;;;;;16.07;12.97;;;;;;;;;;759251;184;919586;-67
2021/08/23 00:15:54;;;;;;;20.00;13.90;;;;;;;;;;756199;181;919435;-66
2021/08/23 00:18:15;;;;;;;16.27;13.23;;;;;;;;;;754691;183;919932;-66
2021/08/23 00:20:43;;;;;;;14.67;12.80;;;;;;;;;;762779;184;919073;-66
2021/08/23 00:23:11;;;;;;;17.92;12.02;;;;;;;;;;757505;183;919711;-66
2021/08/23 00:25:35;;;;;;;16.90;11.80;;;;;;;;;;756570;183;919440;-66
2021/08/23 00:28:01;;;;;;;18.03;12.40;;;;;;;;;;759802;183;917910;-65
2021/08/23 00:30:27;;;;;;;16.20;14.00;;;;;;;;;;754392;183;919295;-64
2021/08/23 00:32:53;;;;;;;34.40;13.70;;;;;;;;;;754905;183;919520;-64
2021/08/23 00:35:19;;;;;;;17.47;13.77;;;;;;;;;;753221;183;919205;-66
2021/08/23 00:37:45;;;;;;;17.13;14.50;;;;;;;;;;760565;183;918912;-64
2021/08/23 00:40:11;;;;;;;18.03;14.60;;;;;;;;;;755110;184;919229;-65
2021/08/23 00:42:37;;;;;;;25.15;15.07;;;;;;;;;;754933;183;919178;-65
2021/08/23 00:45:03;;;;;;;24.87;15.90;;;;;;;;;;759582;183;918805;-64
2021/08/23 00:47:28;;;;;;;25.83;16.20;;;;;;;;;;755274;183;918999;-65
2021/08/23 00:49:54;;;;;;;27.53;15.40;;;;;;;;;;754443;183;919953;-64
2021/08/23 00:52:20;;;;;;;18.07;15.70;;;;;;;;;;758715;183;919514;-64
2021/08/23 00:54:46;;;;;;;24.00;16.97;;;;;;;;;;754508;184;920713;-65
2021/08/23 00:57:12;;;;;;;28.37;16.90;;;;;;;;;;753358;184;919355;-65
2021/08/23 00:59:38;;;;;;;22.70;17.07;;;;;;;;;;753089;184;920047;-65
2021/08/23 01:02:07;;;;;;;21.53;19.27;;;;;;;;;;759969;184;850504;-65
2021/08/23 01:04:33;;;;;;;22.33;19.13;;;;;;;;;;754181;184;930908;-64
2021/08/23 01:06:59;;;;;;;25.50;16.85;;;;;;;;;;753533;184;918622;-65
2021/08/23 01:09:25;;;;;;;20.57;16.67;;;;;;;;;;758087;183;918799;-63
2021/08/23 01:11:52;;;;;;;26.10;19.00;;;;;;;;;;756525;184;918090;-66
2021/08/23 01:14:17;;;;;;;20.57;15.63;;;;;;;;;;755416;184;918752;-65
2021/08/23 01:16:43;;;;;;;24.33;18.17;;;;;;;;;;753990;184;919526;-65
2021/08/23 01:19:10;;;;;;;26.12;18.12;;;;;;;;;;761918;182;918559;-67
2021/08/23 01:21:36;;;;;;;19.60;15.97;;;;;;;;;;752333;184;919678;-64
2021/08/23 01:24:02;;;;;;;22.37;18.40;;;;;;;;;;753145;184;918172;-64
2021/08/23 01:26:27;;;;;;;20.70;17.60;;;;;;;;;;759758;184;918904;-65
2021/08/23 01:28:57;;;;;;;19.57;17.47;;;;;;;;;;758509;183;918559;-64
2021/08/23 01:31:24;;;;;;;23.20;18.80;;;;;;;;;;755401;181;919825;-65
2021/08/23 01:33:49;;;;;;;22.80;18.27;;;;;;;;;;759287;183;919973;-64
2021/08/23 01:36:15;;;;;;;25.50;17.97;;;;;;;;;;756086;184;917621;-64
2021/08/23 01:38:41;;;;;;;31.47;18.80;;;;;;;;;;756034;183;919640;-64
2021/08/23 01:41:07;;;;;;;22.13;19.50;;;;;;;;;;755136;181;918908;-65
2021/08/23 01:43:33;;;;;;;27.43;18.53;;;;;;;;;;758931;182;921319;-64
2021/08/23 01:45:59;;;;;;;25.17;19.67;;;;;;;;;;753278;183;923344;-64
2021/08/23 01:48:24;;;;;;;34.05;19.65;;;;;;;;;;754189;181;920421;-64
2021/08/23 01:50:50;;;;;;;25.30;18.23;;;;;;;;;;758497;184;915786;-65
2021/08/23 01:53:17;;;;;;;25.90;18.87;;;;;;;;;;754221;183;919496;-64
2021/08/23 01:55:43;;;;;;;20.20;17.00;;;;;;;;;;754658;181;915940;-65
2021/08/23 01:58:09;;;;;;;23.83;17.53;;;;;;;;;;759036;183;916794;-64
2021/08/23 02:00:34;;;;;;;22.02;16.45;;;;;;;;;;755299;183;916435;-63
2021/08/23 02:03:00;;;;;;;21.30;16.53;;;;;;;;;;755725;181;916284;-64
2021/08/23 02:05:28;;;;;;;21.97;16.80;;;;;;;;;;753079;184;921040;-63
2021/08/23 02:07:52;;;;;;;18.47;16.00;;;;;;;;;;760135;182;908595;-63
2021/08/23 02:10:18;;;;;;;21.47;17.77;;;;;;;;;;753332;183;912552;-64
2021/08/23 02:12:44;;;;;;;18.70;14.85;;;;;;;;;;753271;184;912733;-64
2021/08/23 02:15:10;;;;;;;19.10;15.60;;;;;;;;;;760113;184;912558;-64
2021/08/23 02:17:35;;;;;;;19.20;14.87;;;;;;;;;;755187;180;931367;-64
2021/08/23 02:20:01;;;;;;;19.70;14.68;;;;;;;;;;755753;182;916884;-64
2021/08/23 02:22:27;;;;;;;18.33;15.30;;;;;;;;;;759030;184;916895;-64
2021/08/23 02:24:53;;;;;;;16.53;14.23;;;;;;;;;;755177;184;916007;-64
2021/08/23 02:27:19;;;;;;;22.13;15.77;;;;;;;;;;754162;184;1017556;-64
2021/08/23 02:29:45;;;;;;;19.10;12.97;;;;;;;;;;753085;184;915512;-62
2021/08/23 02:32:10;;;;;;;16.60;14.00;;;;;;;;;;761104;181;918990;-64
2021/08/23 02:34:37;;;;;;;16.10;14.30;;;;;;;;;;753695;181;915086;-64
2021/08/23 02:37:03;;;;;;;18.90;13.50;;;;;;;;;;753498;184;918987;-63
2021/08/23 02:39:29;;;;;;;16.77;13.23;;;;;;;;;;761894;184;919464;-64
2021/08/23 02:41:54;;;;;;;17.10;13.10;;;;;;;;;;756514;183;940216;-64
2021/08/23 02:44:20;;;;;;;16.00;12.93;;;;;;;;;;756454;181;920192;-63
2021/08/23 02:46:46;;;;;;;17.17;12.83;;;;;;;;;;759822;184;918885;-62
2021/08/23 02:49:12;;;;;;;15.43;10.87;;;;;;;;;;756200;184;936842;-62
2021/08/23 02:51:38;;;;;;;19.27;11.73;;;;;;;;;;754631;185;918589;-62
2021/08/23 02:54:04;;;;;;;19.50;12.13;;;;;;;;;;759019;184;919099;-63
2021/08/23 02:56:29;;;;;;;16.87;11.90;;;;;;;;;;754032;183;919381;-64
2021/08/23 02:58:55;;;;;;;14.87;11.40;;;;;;;;;;753912;183;918944;-63
2021/08/23 03:01:21;;;;;;;13.80;11.53;;;;;;;;;;753055;184;919535;-63
2021/08/23 03:03:47;;;;;;;21.03;12.47;;;;;;;;;;759046;183;919283;-63
2021/08/23 03:06:13;;;;;;;14.70;10.67;;;;;;;;;;756459;183;919748;-62
2021/08/23 03:08:39;;;;;;;13.82;11.15;;;;;;;;;;754778;184;919685;-63
2021/08/23 03:11:05;;;;;;;13.13;10.37;;;;;;;;;;759947;183;920356;-63
2021/08/23 03:13:31;;;;;;;13.50;11.03;;;;;;;;;;755288;184;920078;-62
2021/08/23 03:15:57;;;;;;;12.20;10.53;;;;;;;;;;749441;184;1737866;-63
2021/08/23 03:18:23;;;;;;;13.37;9.60;;;;;;;;;;758174;183;919581;-64
2021/08/23 03:20:49;;;;;;;17.87;10.00;;;;;;;;;;753234;184;918741;-63
2021/08/23 03:23:14;;;;;;;13.00;9.60;;;;;;;;;;753479;183;922556;-62
2021/08/23 03:25:40;;;;;;;18.10;10.10;;;;;;;;;;753551;184;918615;-62
2021/08/23 03:28:06;;;;;;;12.20;8.70;;;;;;;;;;754275;184;919954;-62
2021/08/23 03:30:32;;;;;;;9.90;8.67;;;;;;;;;;757363;183;918766;-62
2021/08/23 03:32:58;;;;;;;13.60;9.37;;;;;;;;;;753414;181;919180;-63
2021/08/23 03:35:24;;;;;;;11.10;7.60;;;;;;;;;;759565;183;918796;-63
2021/08/23 03:37:49;;;;;;;10.67;9.40;;;;;;;;;;753953;184;919772;-63
2021/08/23 03:40:15;;;;;;;16.20;8.63;;;;;;;;;;754059;184;918417;-64
2021/08/23 03:42:41;;;;;;;12.80;8.20;;;;;;;;;;760145;182;919443;-63
2021/08/23 03:45:07;;;;;;;12.47;7.83;;;;;;;;;;756726;184;918512;-63
2021/08/23 03:47:33;;;;;;;10.17;7.37;;;;;;;;;;754086;184;919302;-61
2021/08/23 03:49:59;;;;;;;9.13;7.77;;;;;;;;;;753995;183;919339;-61
2021/08/23 03:52:25;;;;;;;9.47;8.10;;;;;;;;;;764441;180;919206;-63
2021/08/23 03:54:51;;;;;;;11.20;8.50;;;;;;;;;;754451;183;919402;-64
2021/08/23 03:57:16;;;;;;;10.97;8.37;;;;;;;;;;753706;184;931217;-63
2021/08/23 03:59:42;;;;;;;8.70;7.27;;;;;;;;;;760746;183;919566;-66
2021/08/23 04:02:08;;;;;;;12.23;8.17;;;;;;;;;;755775;181;919477;-63
2021/08/23 04:04:34;;;;;;;8.40;6.90;;;;;;;;;;755980;181;919168;-63
2021/08/23 04:07:00;;;;;;;12.03;7.23;;;;;;;;;;760385;183;918854;-65
2021/08/23 04:09:26;;;;;;;9.90;8.20;;;;;;;;;;755853;181;919211;-63
2021/08/23 04:11:52;;;;;;;14.80;7.50;;;;;;;;;;754238;184;1030210;-63
2021/08/23 04:14:17;;;;;;;11.10;8.80;;;;;;;;;;759624;183;918483;-63
2021/08/23 04:16:43;;;;;;;12.17;7.93;;;;;;;;;;755175;184;916049;-63
2021/08/23 04:19:09;;;;;;;10.30;8.17;;;;;;;;;;753433;182;918298;-63
2021/08/23 04:21:35;;;;;;;9.27;8.10;;;;;;;;;;753568;183;919959;-63
2021/08/23 04:24:01;;;;;;;8.60;7.60;;;;;;;;;;760195;183;918918;-64
2021/08/23 04:26:27;;;;;;;10.95;8.25;;;;;;;;;;755789;182;919248;-64
2021/08/23 04:28:52;;;;;;;12.60;7.87;;;;;;;;;;754145;184;923774;-63
2021/08/23 04:31:18;;;;;;;18.77;8.47;;;;;;;;;;759939;184;917782;-62
2021/08/23 04:33:46;;;;;;;11.30;8.13;;;;;;;;;;754115;182;919133;-63
2021/08/23 04:36:10;;;;;;;13.50;8.33;;;;;;;;;;755658;184;919513;-63
2021/08/23 04:38:36;;;;;;;9.73;7.80;;;;;;;;;;759533;184;919087;-63
2021/08/23 04:41:02;;;;;;;11.30;9.03;;;;;;;;;;753440;184;918898;-63
2021/08/23 04:43:27;;;;;;;15.73;6.80;;;;;;;;;;753213;184;918989;-64
2021/08/23 04:45:53;;;;;;;9.63;8.20;;;;;;;;;;753947;184;919393;-63
2021/08/23 04:48:20;;;;;;;11.40;7.60;;;;;;;;;;759580;181;919249;-64
2021/08/23 04:50:45;;;;;;;10.57;8.50;;;;;;;;;;753634;181;918702;-62
2021/08/23 04:53:11;;;;;;;8.73;6.95;;;;;;;;;;754368;184;918777;-63
2021/08/23 04:55:37;;;;;;;9.57;7.00;;;;;;;;;;760585;181;917848;-63
2021/08/23 04:58:03;;;;;;;9.13;7.60;;;;;;;;;;755906;184;919324;-63
2021/08/23 05:00:29;;;;;;;9.60;7.37;;;;;;;;;;754355;184;928330;-63
2021/08/23 05:02:55;;;;;;;8.10;7.30;;;;;;;;;;760665;183;919020;-63
2021/08/23 05:05:20;;;;;;;11.47;8.43;;;;;;;;;;757534;180;919613;-63
2021/08/23 05:07:46;;;;;;;11.93;7.47;;;;;;;;;;755925;183;919981;-63
2021/08/23 05:10:13;;;;;;;9.25;7.57;;;;;;;;;;758826;183;920917;-62
2021/08/23 05:12:39;;;;;;;9.90;8.10;;;;;;;;;;764647;181;922188;-63
2021/08/23 05:15:05;;;;;;;12.30;6.90;;;;;;;;;;753721;184;925275;-63
2021/08/23 05:17:31;;;;;;;9.30;7.12;;;;;;;;;;754275;182;921783;-63
2021/08/23 05:19:58;;;;;;;10.20;7.47;;;;;;;;;;759585;182;919495;-63
2021/08/23 05:22:24;;;;;;;8.07;6.60;;;;;;;;;;755111;184;919972;-64
2021/08/23 05:24:49;;;;;;;8.57;6.50;;;;;;;;;;754901;183;915512;-63
2021/08/23 05:27:14;;;;;;;10.70;6.93;;;;;;;;;;759857;184;920105;-63
2021/08/23 05:29:40;;;;;;;9.43;6.77;;;;;;;;;;756047;183;919056;-63
2021/08/23 05:32:06;;;;;;;7.77;6.43;;;;;;;;;;755803;183;920089;-63
2021/08/23 05:34:32;;;;;;;14.77;6.77;;;;;;;;;;758518;181;919499;-63
2021/08/23 05:36:58;;;;;;;14.83;6.00;;;;;;;;;;752877;183;923104;-63
2021/08/23 05:39:24;;;;;;;7.73;6.13;;;;;;;;;;753560;183;920126;-63
2021/08/23 05:41:50;;;;;;;7.50;6.20;;;;;;;;;;753474;184;913625;-63
2021/08/23 05:44:15;;;;;;;8.17;6.37;;;;;;;;;;761426;181;915973;-63
2021/08/23 05:46:41;;;;;;;10.73;6.70;;;;;;;;;;755770;184;916542;-64
2021/08/23 05:49:07;;;;;;;7.47;5.80;;;;;;;;;;759049;184;618566;-64
2021/08/23 05:51:33;;;;;;;9.00;6.57;;;;;;;;;;761727;184;679935;-63
2021/08/23 05:53:59;;;;;;;10.97;6.70;;;;;;;;;;759327;184;639194;-64
2021/08/23 05:56:25;;;;;;;8.03;6.70;;;;;;;;;;756986;184;624716;-64
2021/08/23 05:58:50;;;;;;;7.87;5.77;;;;;;;;;;762940;181;626702;-63
2021/08/23 06:01:16;;;;;;;9.40;6.50;;;;;;;;;;758160;184;618303;-63
2021/08/23 06:03:42;;;;;;;7.83;6.33;;;;;;;;;;756583;184;663715;-63
2021/08/23 06:06:08;;;;;;;11.20;7.27;;;;;;;;;;754750;184;919361;-63
2021/08/23 06:08:34;;;;;;;8.07;6.40;;;;;;;;;;763776;182;912096;-63
2021/08/23 06:11:01;;;;;;;8.80;7.03;;;;;;;;;;756525;184;909718;-63
2021/08/23 06:13:26;;;;;;;9.13;6.22;;;;;;;;;;755954;184;918315;-63
2021/08/23 06:15:53;;;;;;;7.80;6.07;;;;;;;;;;761899;183;919342;-63
2021/08/23 06:18:19;;;;;;;8.50;5.30;;;;;;;;;;759715;183;918378;-63
2021/08/23 06:20:45;;;;;;;7.57;5.67;;;;;;;;;;760806;183;623820;-63
2021/08/23 06:23:11;;;;;;;8.17;5.70;;;;;;;;;;759823;184;919864;-63
2021/08/23 06:25:37;;;;;;;10.20;6.90;;;;;;;;;;754421;183;923820;-63
2021/08/23 06:28:03;;;;;;;7.55;6.20;;;;;;;;;;756591;183;920092;-63
2021/08/23 06:30:29;;;;;;;8.17;5.77;;;;;;;;;;753376;183;1089404;-63
2021/08/23 06:32:55;;;;;;;8.10;6.70;;;;;;;;;;752192;183;919920;-63
2021/08/23 06:35:21;;;;;;;7.47;5.93;;;;;;;;;;752045;183;1045248;-63
2021/08/23 06:37:47;;;;;;;10.90;6.50;;;;;;;;;;753864;183;918387;-64
2021/08/23 06:40:14;;;;;;;10.73;6.20;;;;;;;;;;759711;182;919775;-63
2021/08/23 06:42:39;;;;;;;11.10;7.83;;;;;;;;;;755954;183;919657;-63
2021/08/23 06:45:05;;;;;;;9.50;6.70;;;;;;;;;;755816;183;919581;-63
2021/08/23 06:47:31;;;;;;;10.13;7.60;;;;;;;;;;758826;182;920152;-63
2021/08/23 06:49:57;;;;;;;12.30;7.70;;;;;;;;;;754057;184;1123205;-63
2021/08/23 06:52:23;;;;;;;11.40;7.40;;;;;;;;;;754119;184;919234;-63
2021/08/23 06:54:49;;;;;;;10.40;8.37;;;;;;;;;;753817;184;920052;-63
2021/08/23 06:57:15;;;;;;;12.13;7.37;;;;;;;;;;752752;184;918573;-63
2021/08/23 06:59:40;;;;;;;8.73;7.67;;;;;;;;;;752522;184;919436;-64
2021/08/23 07:02:06;;;;;;;9.73;7.33;;;;;;;;;;754430;184;919626;-65
2021/08/23 07:04:32;;;;;;;9.87;7.90;;;;;;;;;;760876;184;945682;-63
2021/08/23 07:06:58;;;;;;;12.90;8.17;;;;;;;;;;758571;184;980333;-64
2021/08/23 07:09:24;;;;;;;10.10;7.87;;;;;;;;;;757037;184;927007;-64
2021/08/23 07:11:50;;;;;;;8.17;6.90;;;;;;;;;;758594;184;919190;-62
2021/08/23 07:14:16;;;;;;;11.57;8.37;;;;;;;;;;754176;184;919959;-62
2021/08/23 07:16:41;;;;;;;12.40;7.37;;;;;;;;;;753525;184;918935;-63
2021/08/23 07:19:07;;;;;;;9.93;7.97;;;;;;;;;;759666;184;919627;-62
2021/08/23 07:21:33;;;;;;;9.33;7.17;;;;;;;;;;753125;181;919130;-63
2021/08/23 07:23:59;;;;;;;10.30;8.07;;;;;;;;;;752962;183;919499;-63
2021/08/23 07:26:25;;;;;;;9.87;7.23;;;;;;;;;;754786;181;919250;-62
2021/08/23 07:28:51;;;;;;;11.53;7.33;;;;;;;;;;761426;183;919048;-63
2021/08/23 07:31:16;;;;;;;10.00;7.53;;;;;;;;;;755710;183;919587;-63
2021/08/23 07:33:42;;;;;;;8.13;6.47;;;;;;;;;;756843;183;920221;-62
2021/08/23 07:36:08;;;;;;;8.03;6.70;;;;;;;;;;760205;183;920567;-63
2021/08/23 07:38:34;;;;;;;10.40;7.83;;;;;;;;;;754718;183;941383;-63
2021/08/23 07:41:03;;;;;;;9.37;7.20;;;;;;;;;;755598;183;919204;-62
2021/08/23 07:43:26;;;;;;;10.23;8.23;;;;;;;;;;759630;181;920622;-64
2021/08/23 07:45:51;;;;;;;10.80;8.40;;;;;;;;;;754044;181;919375;-62
2021/08/23 07:48:17;;;;;;;8.85;7.68;;;;;;;;;;752743;183;915813;-63
2021/08/23 07:50:43;;;;;;;9.80;7.10;;;;;;;;;;754120;183;916620;-63
2021/08/23 07:53:09;;;;;;;10.93;7.83;;;;;;;;;;755328;184;915228;-63
2021/08/23 07:55:35;;;;;;;12.70;8.30;;;;;;;;;;754356;183;921758;-63
2021/08/23 07:58:01;;;;;;;10.93;8.07;;;;;;;;;;753891;183;919304;-63
2021/08/23 08:00:26;;;;;;;10.37;7.13;;;;;;;;;;761603;183;916735;-64
2021/08/23 08:02:52;;;;;;;9.00;6.73;;;;;;;;;;755222;184;917819;-63
2021/08/23 08:05:18;;;;;;;11.55;7.93;;;;;;;;;;753123;184;917686;-64
2021/08/23 08:07:44;;;;;;;10.60;8.20;;;;;;;;;;758770;182;920026;-63
2021/08/23 08:10:10;;;;;;;11.63;9.37;;;;;;;;;;753157;184;919060;-64
2021/08/23 08:12:36;;;;;;;12.40;7.70;;;;;;;;;;757434;184;918584;-66
2021/08/23 08:15:02;;;;;;;12.00;8.13;;;;;;;;;;758820;184;637286;-63
2021/08/23 08:17:28;;;;;;;9.50;7.07;;;;;;;;;;761607;181;918061;-65
2021/08/23 08:19:53;;;;;;;8.70;6.80;;;;;;;;;;753319;181;919279;-64
2021/08/23 08:22:19;;;;;;;11.33;8.23;;;;;;;;;;752377;184;919560;-63
2021/08/23 08:24:45;;;;;;;8.90;8.00;;;;;;;;;;758899;184;918603;-63
2021/08/23 08:27:11;;;;;;;8.57;7.30;;;;;;;;;;758064;184;918887;-64
2021/08/23 08:29:38;;;;;;;7.13;6.07;;;;;;;;;;759592;181;618603;-64
2021/08/23 08:32:03;;;;;;;9.20;7.03;;;;;;;;;;762239;184;628874;-64
2021/08/23 08:34:29;;;;;;;9.50;7.90;;;;;;;;;;759487;181;631450;-64
2021/08/23 08:36:54;;;;;;;10.00;7.20;;;;;;;;;;760015;183;618878;-64
2021/08/23 08:39:20;;;;;;;12.60;9.50;;;;;;;;;;764514;183;622102;-63
2021/08/23 08:41:46;;;;;;;12.97;10.30;;;;;;;;;;755665;182;917918;-63
2021/08/23 08:44:12;;;;;;;11.17;8.80;;;;;;;;;;753581;183;919885;-64
2021/08/23 08:46:38;;;;;;;9.83;8.10;;;;;;;;;;754651;181;920504;-64
2021/08/23 08:49:05;;;;;;;11.10;8.33;;;;;;;;;;759926;183;918852;-63
2021/08/23 08:51:30;;;;;;;12.00;8.70;;;;;;;;;;754710;183;1020843;-64
2021/08/23 08:53:56;;;;;;;10.47;8.30;;;;;;;;;;755075;183;919081;-64
2021/08/23 08:56:22;;;;;;;12.37;9.33;;;;;;;;;;760351;183;918761;-64
2021/08/23 08:58:48;;;;;;;13.90;10.23;;;;;;;;;;755067;183;919381;-64
2021/08/23 09:01:13;;;;;;;12.05;7.50;;;;;;;;;;754722;183;919188;-64
2021/08/23 09:03:45;;;;;;;7.70;6.43;;;;;;;;;;758746;183;919039;-64
2021/08/23 09:06:10;;;;;;;8.23;6.10;;;;;;;;;;758231;183;919595;-64
2021/08/23 09:08:41;;;;;;;7.13;6.10;;;;;;;;;;754784;183;918771;-65
2021/08/23 09:11:09;;;;;;;10.00;5.93;;;;;;;;;;754663;184;918935;-64
2021/08/23 09:13:35;;;;;;;11.70;7.63;;;;;;;;;;758776;181;920198;-64
2021/08/23 09:16:01;;;;;;;10.80;6.90;;;;;;;;;;754310;184;919363;-64
2021/08/23 09:18:28;;;;;;;9.97;7.27;;;;;;;;;;753850;181;919945;-64
2021/08/23 09:20:55;;;;;;;8.27;7.03;;;;;;;;;;755046;184;919559;-64
2021/08/23 09:23:21;;;;;;;11.77;8.77;;;;;;;;;;760846;180;918913;-64
2021/08/23 09:25:47;;;;;;;10.10;9.10;;;;;;;;;;754272;184;918572;-63
2021/08/23 09:28:13;;;;;;;13.43;9.10;;;;;;;;;;753045;182;977909;-64
2021/08/23 09:30:39;;;;;;;12.10;10.23;;;;;;;;;;760500;184;815792;-65
2021/08/23 09:33:04;;;;;;;8.57;6.77;;;;;;;;;;753677;184;918496;-65
2021/08/23 09:35:31;;;;;;;11.13;7.17;;;;;;;;;;755568;183;918827;-65
2021/08/23 09:37:56;;;;;;;9.63;6.67;;;;;;;;;;759130;184;919136;-65
2021/08/23 09:40:24;;;;;;;7.50;5.93;;;;;;;;;;753635;184;918346;-65
2021/08/23 09:42:51;;;;;;;7.77;5.93;;;;;;;;;;754847;184;918835;-65
2021/08/23 09:45:16;;;;;;;7.80;5.90;;;;;;;;;;754786;184;916140;-65
2021/08/23 09:47:42;;;;;;;7.77;6.00;;;;;;;;;;759238;184;918967;-65
2021/08/23 09:50:15;;;;;;;8.40;6.33;;;;;;;;;;757401;184;920835;-65
2021/08/23 09:52:41;;;;;;;9.40;6.33;;;;;;;;;;755616;183;919237;-67
2021/08/23 09:55:08;;;;;;;7.10;6.10;;;;;;;;;;756149;183;919128;-66
2021/08/23 09:57:33;;;;;;;9.40;7.60;;;;;;;;;;759936;181;919165;-65
2021/08/23 09:59:58;;;;;;;9.90;6.70;;;;;;;;;;753805;183;919280;-65
2021/08/23 10:02:24;;;;;;;7.27;6.20;;;;;;;;;;753595;183;920091;-65
2021/08/23 10:04:50;;;;;;;6.30;5.63;;;;;;;;;;761959;184;918754;-65
2021/08/23 10:07:16;;;;;;;7.73;5.70;;;;;;;;;;755485;183;919401;-65
2021/08/23 10:09:42;;;;;;;10.23;6.37;;;;;;;;;;755686;183;918719;-66
2021/08/23 10:12:08;;;;;;;7.90;4.73;;;;;;;;;;759951;183;917942;-67
2021/08/23 10:14:33;;;;;;;7.10;5.40;;;;;;;;;;755844;181;919457;-65
2021/08/23 10:16:59;;;;;;;7.23;5.70;;;;;;;;;;757186;183;919448;-64
2021/08/23 10:19:26;;;;;;;6.40;5.50;;;;;;;;;;758675;184;918951;-64
2021/08/23 10:21:51;;;;;;;8.03;6.20;;;;;;;;;;752500;181;918667;-65
2021/08/23 10:24:22;;;;;;;6.00;4.90;;;;;;;;;;752460;182;919461;-65
2021/08/23 10:26:48;;;;;;;8.50;5.60;;;;;;;;;;755276;182;918874;-65
2021/08/23 10:29:14;;;;;;;6.67;5.63;;;;;;;;;;760691;184;918754;-64
2021/08/23 10:31:41;;;;;;;6.60;5.83;;;;;;;;;;756919;184;918820;-65
2021/08/23 10:34:11;;;;;;;6.03;5.03;;;;;;;;;;758758;184;623590;-65
2021/08/23 10:36:36;;;;;;;8.20;5.80;;;;;;;;;;755142;184;918302;-65
2021/08/23 10:39:02;;;;;;;7.73;4.73;;;;;;;;;;756447;183;918149;-65
2021/08/23 10:41:28;;;;;;;6.60;5.10;;;;;;;;;;752816;182;918835;-66
2021/08/23 10:43:56;;;;;;;6.17;4.83;;;;;;;;;;753627;184;910754;-63
2021/08/23 10:46:21;;;;;;;9.20;4.80;;;;;;;;;;760819;184;917967;-65
2021/08/23 10:48:47;;;;;;;6.23;4.97;;;;;;;;;;754854;184;918580;-66
2021/08/23 10:51:12;;;;;;;6.60;5.20;;;;;;;;;;754603;182;916436;-66
2021/08/23 10:53:38;;;;;;;6.83;5.10;;;;;;;;;;761549;184;918521;-65
2021/08/23 10:56:13;;;;;;;5.87;4.90;;;;;;;;;;755156;182;921297;-65
2021/08/23 10:58:39;;;;;;;6.80;4.63;;;;;;;;;;756137;184;920011;-66
2021/08/23 11:01:05;;;;;;;6.87;5.07;;;;;;;;;;757780;183;932310;-66
2021/08/23 11:03:31;;;;;;;7.70;5.43;;;;;;;;;;759708;183;994703;-65
2021/08/23 11:06:04;;;;;;;6.60;5.40;;;;;;;;;;754437;183;920284;-66
2021/08/23 11:08:30;;;;;;;7.13;5.80;;;;;;;;;;754817;183;918280;-65
2021/08/23 11:10:56;;;;;;;6.97;5.20;;;;;;;;;;755298;183;919412;-66
2021/08/23 11:13:22;;;;;;;6.33;4.67;;;;;;;;;;759043;183;921968;-65
2021/08/23 11:15:48;;;;;;;5.77;4.67;;;;;;;;;;754620;183;918393;-66
2021/08/23 11:18:13;;;;;;;5.27;4.10;;;;;;;;;;754700;181;919165;-66
2021/08/23 11:20:39;;;;;;;8.40;5.00;;;;;;;;;;759298;182;918451;-65
2021/08/23 11:23:05;;;;;;;5.50;4.23;;;;;;;;;;755099;181;918654;-66
2021/08/23 11:25:31;;;;;;;6.57;4.90;;;;;;;;;;754987;183;916536;-65
2021/08/23 11:27:57;;;;;;;5.57;4.20;;;;;;;;;;758776;183;918890;-66
2021/08/23 11:30:25;;;;;;;4.73;4.23;;;;;;;;;;753378;183;919333;-66
2021/08/23 11:32:51;;;;;;;6.20;4.50;;;;;;;;;;753866;185;918959;-67
2021/08/23 11:35:17;;;;;;;6.83;4.77;;;;;;;;;;752821;184;927085;-66
2021/08/23 11:37:43;;;;;;;6.40;5.37;;;;;;;;;;760346;184;919308;-65
2021/08/23 11:40:09;;;;;;;5.13;4.10;;;;;;;;;;754030;181;919910;-65
2021/08/23 11:42:36;;;;;;;5.30;4.00;;;;;;;;;;753868;183;919441;-65
2021/08/23 11:45:01;;;;;;;5.93;4.10;;;;;;;;;;758769;184;919740;-66
2021/08/23 11:47:28;;;;;;;5.33;4.67;;;;;;;;;;755090;181;919745;-66
2021/08/23 11:49:54;;;;;;;5.80;4.40;;;;;;;;;;754817;184;919254;-66
2021/08/23 11:52:20;;;;;;;5.17;3.70;;;;;;;;;;753955;184;918087;-65
2021/08/23 11:54:46;;;;;;;7.10;4.50;;;;;;;;;;756172;184;918851;-66
2021/08/23 11:57:11;;;;;;;6.23;4.80;;;;;;;;;;753300;184;922481;-66
2021/08/23 11:59:37;;;;;;;6.10;4.40;;;;;;;;;;752822;184;919959;-67
2021/08/23 12:02:09;;;;;;;9.50;4.87;;;;;;;;;;760146;182;915965;-67
2021/08/23 12:04:35;;;;;;;10.27;3.80;;;;;;;;;;755636;184;883524;-67
2021/08/23 12:07:01;;;;;;;7.33;4.23;;;;;;;;;;754375;184;938310;-66
2021/08/23 12:09:27;;;;;;;5.77;4.67;;;;;;;;;;754811;184;917999;-64
2021/08/23 12:11:53;;;;;;;6.17;5.00;;;;;;;;;;758795;181;918407;-67
2021/08/23 12:14:18;;;;;;;6.57;4.53;;;;;;;;;;755703;183;919448;-68
2021/08/23 12:16:44;;;;;;;5.80;4.77;;;;;;;;;;756251;183;917298;-65
2021/08/23 12:19:10;;;;;;;5.40;4.50;;;;;;;;;;760054;183;920167;-66
2021/08/23 12:21:36;;;;;;;6.50;4.80;;;;;;;;;;755397;183;919364;-67
2021/08/23 12:24:05;;;;;;;4.60;3.87;;;;;;;;;;755650;183;919765;-64
2021/08/23 12:26:35;;;;;;;6.10;4.23;;;;;;;;;;760024;183;918738;-66
2021/08/23 12:29:00;;;;;;;6.13;5.10;;;;;;;;;;754988;184;921929;-66
2021/08/23 12:31:26;;;;;;;5.00;3.60;;;;;;;;;;752968;183;948693;-66
2021/08/23 12:33:52;;;;;;;5.40;4.40;;;;;;;;;;753432;181;920266;-67
2021/08/23 12:36:17;;;;;;;5.97;3.93;;;;;;;;;;759616;184;920373;-67
2021/08/23 12:38:45;;;;;;;7.43;4.17;;;;;;;;;;755432;184;918520;-68
2021/08/23 12:41:09;;;;;;;5.20;3.50;;;;;;;;;;754641;181;953748;-68
2021/08/23 12:43:36;;;;;;;5.60;4.07;;;;;;;;;;760721;183;914522;-66
2021/08/23 12:46:03;;;;;;;14.63;4.07;;;;;;;;;;756421;183;913013;-66
2021/08/23 12:48:28;;;;;;;4.22;3.55;;;;;;;;;;754528;181;916384;-66
2021/08/23 12:50:53;;;;;;;4.87;3.63;;;;;;;;;;759482;181;912016;-66
2021/08/23 12:53:19;;;;;;;6.30;4.13;;;;;;;;;;754383;184;911684;-66
2021/08/23 12:55:45;;;;;;;4.33;3.10;;;;;;;;;;753108;184;914452;-66
2021/08/23 12:58:11;;;;;;;5.33;3.13;;;;;;;;;;752802;182;919040;-66
2021/08/23 13:00:37;;;;;;;4.30;2.90;;;;;;;;;;759565;184;918231;-65
2021/08/23 13:03:03;;;;;;;5.70;3.70;;;;;;;;;;758930;184;981772;-65
2021/08/23 13:05:28;;;;;;;5.70;3.57;;;;;;;;;;754496;184;919246;-67
2021/08/23 13:07:54;;;;;;;4.10;2.60;;;;;;;;;;759398;184;921311;-67
2021/08/23 13:10:20;;;;;;;6.60;3.37;;;;;;;;;;753229;184;919308;-67
2021/08/23 13:12:46;;;;;;;5.10;2.80;;;;;;;;;;756340;184;918677;-67
2021/08/23 13:15:12;;;;;;;5.13;3.27;;;;;;;;;;759740;180;918371;-65
2021/08/23 13:17:38;;;;;;;6.10;3.30;;;;;;;;;;756679;184;919161;-67
2021/08/23 13:20:05;;;;;;;4.00;2.57;;;;;;;;;;756344;184;919597;-68
2021/08/23 13:22:29;;;;;;;5.60;2.93;;;;;;;;;;753066;183;918706;-68
2021/08/23 13:24:55;;;;;;;3.00;2.70;;;;;;;;;;755742;183;917925;-65
2021/08/23 13:27:21;;;;;;;4.40;3.20;;;;;;;;;;755116;183;920291;-67
2021/08/23 13:29:48;;;;;;;6.00;2.83;;;;;;;;;;755602;183;919289;-69
2021/08/23 13:32:13;;;;;;;6.63;3.33;;;;;;;;;;761114;183;919281;-69
2021/08/23 13:34:39;;;;;;;4.77;2.70;;;;;;;;;;755854;183;918976;-67
2021/08/23 13:37:05;;;;;;;5.60;3.50;;;;;;;;;;755634;181;919536;-68
2021/08/23 13:39:30;;;;;;;3.73;2.67;;;;;;;;;;759676;184;919230;-68
2021/08/23 13:41:56;;;;;;;3.50;2.60;;;;;;;;;;753687;183;1254230;-68
2021/08/23 13:44:22;;;;;;;8.05;2.65;;;;;;;;;;755831;183;919015;-67
2021/08/23 13:46:49;;;;;;;4.20;2.65;;;;;;;;;;759421;183;919164;-66
2021/08/23 13:49:15;;;;;;;3.40;2.30;;;;;;;;;;753293;183;924143;-66
2021/08/23 13:51:40;;;;;;;4.03;2.70;;;;;;;;;;753888;183;919171;-67
2021/08/23 13:54:06;;;;;;;6.20;2.20;;;;;;;;;;753524;183;918790;-70
2021/08/23 13:56:32;;;;;;;4.77;2.27;;;;;;;;;;762229;183;918943;-67
2021/08/23 13:58:59;;;;;;;7.33;2.53;;;;;;;;;;755096;183;919724;-66
2021/08/23 14:01:24;;;;;;;4.28;2.80;;;;;;;;;;756099;184;1021558;-68
2021/08/23 14:03:50;;;;;;;4.47;3.03;;;;;;;;;;757867;184;1124001;-68
2021/08/23 14:06:15;;;;;;;7.60;2.87;;;;;;;;;;756306;184;928843;-67
2021/08/23 14:08:41;;;;;;;5.67;3.00;;;;;;;;;;753707;184;919773;-69
2021/08/23 14:11:07;;;;;;;4.30;2.47;;;;;;;;;;758079;184;917774;-68
2021/08/23 14:13:33;;;;;;;3.83;2.43;;;;;;;;;;753897;184;918781;-70